createdAt,value
2022-12-19T00:00:20.499Z,99029.03
2022-12-19T00:02:24.356Z,99035.00
2022-12-19T00:04:27.585Z,99041.81
2022-12-19T00:06:31.417Z,99044.34
2022-12-19T00:08:34.414Z,99051.19
2022-12-19T00:10:37.456Z,99056.28
2022-12-19T00:12:40.485Z,99048.56
2022-12-19T00:15:00.007Z,99045.97
2022-12-19T00:17:04.991Z,99050.22
2022-12-19T00:19:08.231Z,99048.50
2022-12-19T00:21:13.263Z,99060.44
2022-12-19T00:23:16.408Z,99073.28
2022-12-19T00:25:23.130Z,99069.84
2022-12-19T00:27:26.668Z,99082.63
2022-12-19T00:29:29.721Z,99085.19
2022-12-19T00:31:35.865Z,99087.75
2022-12-19T00:33:42.597Z,99077.47
2022-12-19T00:35:48.139Z,99070.59
2022-12-19T00:37:51.158Z,99062.91
2022-12-19T00:39:54.374Z,99069.72
2022-12-19T00:41:57.430Z,99069.72
2022-12-19T00:44:01.965Z,99074.81
2022-12-19T00:46:09.562Z,99080.78
2022-12-19T00:48:16.780Z,99075.69
2022-12-19T00:50:22.393Z,99071.44
2022-12-19T00:52:25.432Z,99065.38
2022-12-19T00:54:29.199Z,99060.25
2022-12-19T00:56:55.861Z,99049.97
2022-12-19T00:58:59.614Z,99048.28
2022-12-19T01:01:07.242Z,99044.00
2022-12-19T01:03:11.412Z,99034.59
2022-12-19T01:05:15.961Z,99020.13
2022-12-19T01:07:21.732Z,99016.69
2022-12-19T01:09:24.841Z,99015.88
2022-12-19T01:11:41.711Z,99027.88
2022-12-19T01:13:45.004Z,99026.97
2022-12-19T01:15:48.176Z,99025.25
2022-12-19T01:17:51.732Z,99025.22
2022-12-19T01:19:54.828Z,99020.88
2022-12-19T01:21:59.231Z,99018.28
2022-12-19T01:24:03.643Z,99013.94
2022-12-19T01:26:06.651Z,99002.78
2022-12-19T01:28:12.943Z,99008.69
2022-12-19T01:30:17.755Z,99012.09
2022-12-19T01:32:22.131Z,99009.53
2022-12-19T01:34:25.154Z,99016.28
2022-12-19T01:36:28.210Z,99006.00
2022-12-19T01:38:32.613Z,99009.38
2022-12-19T01:40:37.997Z,99000.91
2022-12-19T01:42:41.064Z,99002.72
2022-12-19T01:45:22.270Z,98992.47
2022-12-19T01:47:25.399Z,98994.19
2022-12-19T01:49:31.870Z,98998.47
2022-12-19T01:51:38.708Z,98984.75
2022-12-19T01:53:49.383Z,98994.19
2022-12-19T01:55:53.351Z,98994.97
2022-12-19T01:57:56.611Z,98990.63
2022-12-19T02:00:04.703Z,98978.59
2022-12-19T02:02:18.933Z,98981.94
2022-12-19T02:04:22.410Z,98980.19
2022-12-19T02:06:42.619Z,98984.44
2022-12-19T02:08:48.771Z,98967.25
2022-12-19T02:10:51.969Z,98976.63
2022-12-19T02:12:55.097Z,98971.50
2022-12-19T02:15:04.999Z,98968.91
2022-12-19T02:17:29.829Z,98965.38
2022-12-19T02:20:02.604Z,98957.69
2022-12-19T02:22:18.868Z,98959.50
2022-12-19T02:25:02.929Z,98941.53
2022-12-19T02:27:29.607Z,98945.75
2022-12-19T02:30:02.966Z,98944.00
2022-12-19T02:32:10.567Z,98958.53
2022-12-19T02:34:18.808Z,98946.50
2022-12-19T02:36:38.942Z,98946.47
2022-12-19T02:38:51.373Z,98947.28
2022-12-19T02:41:00.870Z,98938.66
2022-12-19T02:43:05.155Z,98939.47
2022-12-19T02:45:09.835Z,98936.91
2022-12-19T02:47:15.677Z,98941.13
2022-12-19T02:49:20.972Z,98938.50
2022-12-19T02:51:34.236Z,98937.63
2022-12-19T02:53:38.545Z,98944.47
2022-12-19T02:56:29.855Z,98952.91
2022-12-19T02:58:46.671Z,98951.19
2022-12-19T03:00:59.847Z,98957.94
2022-12-19T03:03:11.692Z,98969.06
2022-12-19T03:05:29.014Z,98966.50
2022-12-19T03:07:36.725Z,98968.13
2022-12-19T03:10:04.263Z,98966.38
2022-12-19T03:12:17.142Z,98962.94
2022-12-19T03:14:22.173Z,98956.00
2022-12-19T03:16:30.016Z,98949.97
2022-12-19T03:18:34.909Z,98945.66
2022-12-19T03:20:47.383Z,98946.47
2022-12-19T03:22:50.480Z,98934.41
2022-12-19T03:24:53.600Z,98947.28
2022-12-19T03:27:01.989Z,98935.31
2022-12-19T03:29:10.553Z,98943.00
2022-12-19T03:31:15.619Z,98948.09
2022-12-19T03:33:20.632Z,98959.25
2022-12-19T03:35:27.363Z,98966.94
2022-12-19T03:37:33.293Z,98958.38
2022-12-19T03:39:36.672Z,98970.34
2022-12-19T03:42:10.306Z,98963.53
2022-12-19T03:44:14.672Z,98980.59
2022-12-19T03:46:22.996Z,98972.88
2022-12-19T03:48:29.892Z,98971.09
2022-12-19T03:50:41.228Z,98975.34
2022-12-19T03:53:04.527Z,98969.34
2022-12-19T03:55:12.492Z,98977.84
2022-12-19T03:57:17.486Z,98978.69
2022-12-19T03:59:23.663Z,98968.38
2022-12-19T04:01:42.289Z,98967.47
2022-12-19T04:03:45.612Z,98968.28
2022-12-19T04:05:50.875Z,98966.53
2022-12-19T04:07:56.448Z,98969.09
2022-12-19T04:10:07.293Z,98964.75
2022-12-19T04:12:15.761Z,98969.03
2022-12-19T04:14:21.512Z,98959.59
2022-12-19T04:16:31.027Z,98959.59
2022-12-19T04:18:34.709Z,98964.66
2022-12-19T04:20:39.886Z,98968.03
2022-12-19T04:22:47.178Z,98975.75
2022-12-19T04:24:51.373Z,98971.41
2022-12-19T04:26:55.969Z,98971.41
2022-12-19T04:29:02.511Z,98975.69
2022-12-19T04:31:05.989Z,98967.97
2022-12-19T04:33:09.210Z,98967.16
2022-12-19T04:35:12.878Z,98983.41
2022-12-19T04:37:19.751Z,98976.56
2022-12-19T04:39:24.172Z,98975.72
2022-12-19T04:41:27.903Z,98971.44
2022-12-19T04:43:30.838Z,98973.19
2022-12-19T04:45:33.886Z,98973.97
2022-12-19T04:47:37.829Z,98974.75
2022-12-19T04:52:01.856Z,98974.75
2022-12-19T04:54:05.253Z,98972.16
2022-12-19T04:56:11.265Z,98971.22
2022-12-19T04:58:18.933Z,98973.72
2022-12-19T05:00:24.621Z,98975.38
2022-12-19T05:02:27.782Z,98974.47
2022-12-19T05:04:30.838Z,98982.97
2022-12-19T05:06:33.908Z,98979.50
2022-12-19T05:08:37.227Z,98986.31
2022-12-19T05:10:40.270Z,98993.94
2022-12-19T05:12:44.979Z,98981.03
2022-12-19T05:14:59.972Z,98988.69
2022-12-19T05:17:03.004Z,98992.94
2022-12-19T05:19:05.978Z,98976.59
2022-12-19T05:21:09.525Z,98979.13
2022-12-19T05:23:16.894Z,98973.06
2022-12-19T05:25:20.983Z,98967.03
2022-12-19T05:27:24.023Z,98970.44
2022-12-19T05:29:28.660Z,98955.81
2022-12-19T05:31:31.753Z,98949.84
2022-12-19T05:33:34.811Z,98948.94
2022-12-19T05:35:38.452Z,98948.88
2022-12-19T05:37:41.526Z,98954.84
2022-12-19T05:39:53.935Z,98963.41
2022-12-19T05:41:57.125Z,98959.91
2022-12-19T05:44:01.204Z,98968.44
2022-12-19T05:46:07.449Z,98965.09
2022-12-19T05:48:10.789Z,98965.09
2022-12-19T05:50:13.842Z,98958.28
2022-12-19T05:52:17.114Z,98959.16
2022-12-19T05:54:20.230Z,98959.97
2022-12-19T05:56:24.534Z,98953.09
2022-12-19T05:58:29.138Z,98945.38
2022-12-19T06:00:32.253Z,98942.75
2022-12-19T06:02:36.784Z,98935.00
2022-12-19T06:05:07.587Z,98933.25
2022-12-19T06:07:11.047Z,98933.19
2022-12-19T06:09:14.136Z,98941.72
2022-12-19T06:11:17.610Z,98928.84
2022-12-19T06:13:24.910Z,98929.69
2022-12-19T06:15:29.253Z,98931.41
2022-12-19T06:17:35.066Z,98921.09
2022-12-19T06:20:08.123Z,98918.47
2022-12-19T06:22:24.020Z,98914.19
2022-12-19T06:24:27.180Z,98917.63
2022-12-19T06:26:31.106Z,98923.56
2022-12-19T06:28:34.801Z,98918.41
2022-12-19T06:30:38.127Z,98926.06
2022-12-19T06:32:41.487Z,98924.25
2022-12-19T06:35:03.594Z,98918.22
2022-12-19T06:37:08.881Z,98920.75
2022-12-19T06:39:14.286Z,98912.09
2022-12-19T06:41:36.630Z,98910.41
2022-12-19T06:43:39.994Z,98913.78
2022-12-19T06:45:43.494Z,98921.47
2022-12-19T06:47:49.576Z,98919.69
2022-12-19T06:49:52.740Z,98915.47
2022-12-19T06:51:55.785Z,98917.94
2022-12-19T06:54:00.685Z,98922.13
2022-12-19T06:56:04.865Z,98918.72
2022-12-19T06:58:08.123Z,98910.16
2022-12-19T07:00:13.397Z,98919.47
2022-12-19T07:02:24.936Z,98913.44
2022-12-19T07:04:30.745Z,98917.72
2022-12-19T07:06:33.821Z,98916.81
2022-12-19T07:08:36.895Z,98909.00
2022-12-19T07:10:41.545Z,98911.53
2022-12-19T07:12:44.859Z,98914.09
2022-12-19T07:14:53.170Z,98914.94
2022-12-19T07:16:59.650Z,98908.91
2022-12-19T07:19:02.817Z,98916.53
2022-12-19T07:21:06.580Z,98917.34
2022-12-19T07:23:10.909Z,98921.63
2022-12-19T07:25:17.613Z,98927.56
2022-12-19T07:27:22.899Z,98923.25
2022-12-19T07:29:26.646Z,98918.06
2022-12-19T07:31:29.748Z,98925.75
2022-12-19T07:33:33.878Z,98935.06
2022-12-19T07:35:36.855Z,98929.91
2022-12-19T07:37:39.974Z,98934.16
2022-12-19T07:39:43.023Z,98930.69
2022-12-19T07:41:46.071Z,98937.38
2022-12-19T07:43:50.742Z,98925.34
2022-12-19T07:45:55.870Z,98932.03
2022-12-19T07:48:01.438Z,98933.69
2022-12-19T07:50:04.950Z,98937.03
2022-12-19T07:52:08.383Z,98927.53
2022-12-19T07:54:11.639Z,98923.19
2022-12-19T07:56:14.952Z,98929.09
2022-12-19T07:58:20.155Z,98929.88
2022-12-19T08:00:24.707Z,98927.22
2022-12-19T08:02:27.881Z,98929.75
2022-12-19T08:04:31.094Z,98929.69
2022-12-19T08:06:39.105Z,98934.78
2022-12-19T08:08:44.252Z,98933.06
2022-12-19T08:10:47.312Z,98932.25
2022-12-19T08:12:51.461Z,98926.16
2022-12-19T08:14:57.350Z,98930.53
2022-12-19T08:19:27.596Z,98939.84
2022-12-19T08:21:31.549Z,98933.78
2022-12-19T08:23:34.636Z,98943.19
2022-12-19T08:25:40.492Z,98933.56
2022-12-19T08:27:43.967Z,98965.22
2022-12-19T08:29:47.376Z,98947.09
2022-12-19T08:31:50.467Z,98952.16
2022-12-19T08:33:56.223Z,98948.69
2022-12-19T08:35:59.300Z,98952.84
2022-12-19T08:38:02.513Z,98957.03
2022-12-19T08:40:07.063Z,98958.66
2022-12-19T08:42:10.217Z,98958.53
2022-12-19T08:44:13.517Z,98958.41
2022-12-19T08:46:17.724Z,98958.28
2022-12-19T08:48:20.865Z,98959.06
2022-12-19T08:50:25.803Z,98958.91
2022-12-19T08:52:28.945Z,98967.44
2022-12-19T08:54:32.135Z,98965.56
2022-12-19T08:56:35.526Z,98970.63
2022-12-19T08:58:38.744Z,98964.53
2022-12-19T09:00:41.848Z,98963.63
2022-12-19T09:02:45.230Z,98949.72
2022-12-19T09:05:57.865Z,98946.16
2022-12-19T09:07:15.301Z,98941.72
2022-12-19T09:09:19.105Z,98940.75
2022-12-19T09:11:22.131Z,98927.69
2022-12-19T09:13:25.446Z,98936.22
2022-12-19T09:15:28.535Z,98931.84
2022-12-19T09:17:31.629Z,98942.94
2022-12-19T09:19:35.079Z,98940.22
2022-12-19T09:21:38.202Z,98941.84
2022-12-19T09:23:43.681Z,98936.59
2022-12-19T09:25:48.967Z,98938.19
2022-12-19T09:28:26.582Z,98938.91
2022-12-19T09:30:15.840Z,98937.91
2022-12-19T09:32:19.290Z,98937.81
2022-12-19T09:34:22.355Z,98934.25
2022-12-19T09:36:27.160Z,98936.78
2022-12-19T09:38:31.518Z,98930.75
2022-12-19T09:40:54.067Z,98932.47
2022-12-19T09:43:03.361Z,98929.84
2022-12-19T09:45:37.568Z,98927.19
2022-12-19T09:47:44.210Z,98928.88
2022-12-19T09:49:48.807Z,98925.34
2022-12-19T09:52:00.619Z,98926.91
2022-12-19T09:54:07.664Z,98925.84
2022-12-19T09:56:15.942Z,98924.81
2022-12-19T09:58:25.263Z,98928.09
2022-12-19T10:00:34.103Z,98924.50
2022-12-19T10:02:42.976Z,98925.19
2022-12-19T10:04:51.292Z,98927.56
2022-12-19T10:07:26.276Z,98929.19
2022-12-19T10:11:46.873Z,98917.81
2022-12-19T10:12:43.380Z,98927.22
2022-12-19T10:14:27.191Z,98918.63
2022-12-19T10:16:38.212Z,98918.53
2022-12-19T10:18:52.820Z,98921.78
2022-12-19T10:21:05.415Z,98935.44
2022-12-19T10:23:23.844Z,98924.13
2022-12-19T10:25:48.762Z,98923.91
2022-12-19T10:27:59.427Z,98914.28
2022-12-19T10:30:12.357Z,98908.00
2022-12-19T10:32:20.931Z,98904.41
2022-12-19T10:34:38.706Z,98894.16
2022-12-19T10:37:23.232Z,98894.97
2022-12-19T10:39:15.552Z,98900.97
2022-12-19T10:41:26.286Z,98895.69
2022-12-19T10:43:44.000Z,98892.13
2022-12-19T10:45:50.987Z,98896.31
2022-12-19T10:48:15.668Z,98884.03
2022-12-19T10:50:23.136Z,98874.31
2022-12-19T10:52:48.251Z,98873.84
2022-12-19T10:54:51.821Z,98871.75
2022-12-19T10:56:55.877Z,98866.94
2022-12-19T10:59:01.344Z,98869.06
2022-12-19T11:01:12.205Z,98873.25
2022-12-19T11:03:19.226Z,98880.03
2022-12-19T11:05:25.289Z,98878.31
2022-12-19T11:07:28.352Z,98872.13
2022-12-19T11:09:33.000Z,98874.56
2022-12-19T11:16:30.290Z,98874.31
2022-12-19T11:18:41.902Z,98855.16
2022-12-19T11:22:33.745Z,98853.34
2022-12-19T11:29:19.574Z,98851.31
2022-12-19T11:29:30.189Z,98844.78
2022-12-19T11:30:39.361Z,98858.47
2022-12-19T11:30:46.075Z,98840.72
2022-12-19T11:32:01.650Z,98860.75
2022-12-19T11:34:14.046Z,98844.38
2022-12-19T11:36:30.623Z,98835.50
2022-12-19T11:38:38.314Z,98836.53
2022-12-19T11:40:49.299Z,98832.34
2022-12-19T11:43:41.516Z,98823.56
2022-12-19T11:45:29.589Z,98823.56
2022-12-19T11:47:38.362Z,98820.97
2022-12-19T11:49:44.415Z,98814.13
2022-12-19T11:51:53.819Z,98815.94
2022-12-19T11:54:03.299Z,98805.47
2022-12-19T11:56:16.677Z,98801.03
2022-12-19T11:58:19.975Z,98804.38
2022-12-19T12:00:25.591Z,98803.50
2022-12-19T12:03:00.265Z,98804.25
2022-12-19T12:05:25.499Z,98805.16
2022-12-19T12:07:52.907Z,98798.31
2022-12-19T12:15:29.326Z,98796.47
2022-12-19T12:22:27.841Z,98799.00
2022-12-19T12:27:29.987Z,98791.16
2022-12-19T12:27:41.174Z,98800.75
2022-12-19T12:31:16.008Z,98781.69
2022-12-19T12:31:23.146Z,98796.34
2022-12-19T12:31:40.357Z,98785.19
2022-12-19T12:31:44.391Z,98792.91
2022-12-19T12:31:47.318Z,98785.19
2022-12-19T12:35:56.638Z,98775.66
2022-12-19T12:40:36.193Z,98778.94
2022-12-19T12:42:46.953Z,98777.97
2022-12-19T12:44:52.450Z,98785.63
2022-12-19T12:47:01.075Z,98779.41
2022-12-19T12:49:08.222Z,98780.94
2022-12-19T12:51:11.962Z,98779.53
2022-12-19T12:53:17.525Z,98775.31
2022-12-19T12:55:26.317Z,98771.09
2022-12-19T12:57:37.321Z,98773.63
2022-12-19T12:59:46.680Z,98763.09
2022-12-19T13:01:54.940Z,98757.16
2022-12-19T13:04:00.224Z,98754.44
2022-12-19T13:06:07.936Z,98741.53
2022-12-19T13:08:41.229Z,98745.69
2022-12-19T13:10:54.939Z,98743.69
2022-12-19T13:13:02.657Z,98736.47
2022-12-19T13:15:36.784Z,98739.69
2022-12-19T13:18:18.389Z,98738.78
2022-12-19T13:20:43.508Z,98739.47
2022-12-19T13:23:05.226Z,98734.06
2022-12-19T13:25:44.909Z,98744.38
2022-12-19T13:27:49.211Z,98746.91
2022-12-19T13:29:54.938Z,98751.06
2022-12-19T13:32:12.392Z,98748.38
2022-12-19T13:34:22.165Z,98747.56
2022-12-19T13:39:56.901Z,98751.81
2022-12-19T13:40:02.078Z,98753.50
2022-12-19T13:42:06.938Z,98750.78
2022-12-19T13:44:10.265Z,98748.88
2022-12-19T13:46:24.719Z,98752.28
2022-12-19T13:48:31.195Z,98751.47
2022-12-19T13:50:37.881Z,98751.59
2022-12-19T13:52:40.891Z,98749.06
2022-12-19T13:54:50.332Z,98753.59
2022-12-19T13:56:53.885Z,98743.47
2022-12-19T13:58:59.462Z,98734.22
2022-12-19T14:01:05.480Z,98740.41
2022-12-19T14:03:16.235Z,98747.41
2022-12-19T14:05:48.585Z,98755.31
2022-12-19T14:07:52.031Z,98749.38
2022-12-19T14:11:28.879Z,98746.91
2022-12-19T14:13:44.013Z,98752.25
2022-12-19T14:15:15.141Z,98754.16
2022-12-19T14:17:19.523Z,98751.75
2022-12-19T14:19:24.576Z,98755.31
2022-12-19T14:22:05.227Z,98748.63
2022-12-19T14:23:53.675Z,98755.59
2022-12-19T14:28:25.488Z,98745.28
2022-12-19T14:28:30.259Z,98738.50
2022-12-19T14:30:36.524Z,98749.84
2022-12-19T14:33:39.569Z,98759.53
2022-12-19T14:36:06.655Z,98748.50
2022-12-19T14:38:12.705Z,98760.97
2022-12-19T14:39:59.809Z,98755.09
2022-12-19T14:42:31.570Z,98755.16
2022-12-19T14:51:03.364Z,98759.72
2022-12-19T14:54:04.474Z,98756.50
2022-12-19T14:54:08.630Z,98754.19
2022-12-19T14:54:10.366Z,98755.25
2022-12-19T14:56:11.393Z,98755.44
2022-12-19T14:56:59.606Z,98749.59
2022-12-19T14:59:04.913Z,98741.13
2022-12-19T15:01:23.331Z,98744.59
2022-12-19T15:03:30.300Z,98746.41
2022-12-19T15:05:34.100Z,98746.56
2022-12-19T15:07:42.162Z,98755.38
2022-12-19T15:11:09.293Z,98747.81
2022-12-19T15:14:20.672Z,98759.94
2022-12-19T15:15:20.455Z,98753.50
2022-12-19T15:17:25.106Z,98762.34
2022-12-19T15:19:28.228Z,98756.47
2022-12-19T15:21:32.490Z,98753.94
2022-12-19T15:23:36.015Z,98749.69
2022-12-19T15:26:07.872Z,98746.41
2022-12-19T15:28:02.640Z,98745.69
2022-12-19T15:30:17.079Z,98744.84
2022-12-19T15:32:20.121Z,98746.66
2022-12-19T15:36:48.263Z,98734.78
2022-12-19T15:39:15.526Z,98739.25
2022-12-19T15:41:23.621Z,98733.38
2022-12-19T15:44:02.062Z,98744.75
2022-12-19T15:45:54.175Z,98750.03
2022-12-19T15:48:02.751Z,98739.81
2022-12-19T15:50:17.474Z,98746.81
2022-12-19T15:52:21.679Z,98741.69
2022-12-19T15:56:50.456Z,98741.00
2022-12-19T15:58:55.997Z,98749.75
2022-12-19T16:01:03.834Z,98745.47
2022-12-19T16:03:23.683Z,98739.53
2022-12-19T16:05:29.172Z,98730.97
2022-12-19T16:07:32.801Z,98732.81
2022-12-19T16:09:36.257Z,98720.00
2022-12-19T16:11:39.391Z,98729.47
2022-12-19T16:13:42.887Z,98721.78
2022-12-19T16:15:46.277Z,98722.75
2022-12-19T16:17:50.740Z,98728.84
2022-12-19T16:19:53.775Z,98724.69
2022-12-19T16:22:00.295Z,98724.72
2022-12-19T16:24:03.564Z,98723.03
2022-12-19T16:26:10.087Z,98729.19
2022-12-19T16:28:17.290Z,98727.50
2022-12-19T16:30:22.682Z,98728.34
2022-12-19T16:32:25.867Z,98718.97
2022-12-19T16:34:30.817Z,98712.16
2022-12-19T16:36:33.893Z,98718.16
2022-12-19T16:38:37.326Z,98717.38
2022-12-19T16:40:40.633Z,98715.69
2022-12-19T16:42:44.297Z,98711.50
2022-12-19T16:44:48.699Z,98714.16
2022-12-19T16:46:52.410Z,98705.59
2022-12-19T16:49:23.972Z,98704.75
2022-12-19T16:51:29.051Z,98703.19
2022-12-19T16:53:32.296Z,98704.16
2022-12-19T16:55:35.388Z,98707.63
2022-12-19T16:57:38.583Z,98713.72
2022-12-19T16:59:41.778Z,98714.66
2022-12-19T17:01:46.242Z,98708.72
2022-12-19T17:03:49.621Z,98706.31
2022-12-19T17:05:52.690Z,98699.56
2022-12-19T17:07:57.686Z,98688.38
2022-12-19T17:10:00.743Z,98692.75
2022-12-19T17:12:03.838Z,98683.34
2022-12-19T17:14:09.459Z,98689.34
2022-12-19T17:16:12.924Z,98690.28
2022-12-19T17:18:23.210Z,98698.09
2022-12-19T17:20:29.233Z,98702.47
2022-12-19T17:22:32.336Z,98704.28
2022-12-19T17:24:36.766Z,98705.19
2022-12-19T17:26:39.797Z,98701.81
2022-12-19T17:28:43.187Z,98715.69
2022-12-19T17:30:52.419Z,98701.88
2022-12-19T17:32:55.983Z,98710.56
2022-12-19T17:34:59.182Z,98708.91
2022-12-19T17:37:04.752Z,98716.66
2022-12-19T17:39:19.326Z,98710.69
2022-12-19T17:41:26.557Z,98705.63
2022-12-19T17:43:29.696Z,98714.25
2022-12-19T17:45:33.912Z,98709.13
2022-12-19T17:47:37.057Z,98714.31
2022-12-19T17:49:40.171Z,98718.66
2022-12-19T17:51:43.811Z,98714.41
2022-12-19T17:53:47.451Z,98710.09
2022-12-19T17:55:50.893Z,98715.31
2022-12-19T17:57:56.017Z,98726.53
2022-12-19T17:59:59.129Z,98723.13
2022-12-19T18:02:02.409Z,98727.44
2022-12-19T18:04:06.295Z,98723.16
2022-12-19T18:06:12.385Z,98726.63
2022-12-19T18:08:24.389Z,98736.13
2022-12-19T18:10:30.003Z,98732.72
2022-12-19T18:12:39.039Z,98730.25
2022-12-19T18:15:03.094Z,98735.53
2022-12-19T18:17:06.473Z,98740.75
2022-12-19T18:19:16.978Z,98730.47
2022-12-19T18:21:22.100Z,98729.59
2022-12-19T18:23:25.397Z,98722.81
2022-12-19T18:25:30.989Z,98732.28
2022-12-19T18:27:34.181Z,98726.28
2022-12-19T18:29:37.325Z,98731.47
2022-12-19T18:31:50.932Z,98739.31
2022-12-19T18:33:59.570Z,98741.13
2022-12-19T18:36:08.220Z,98735.03
2022-12-19T18:38:15.284Z,98735.09
2022-12-19T18:40:24.692Z,98735.97
2022-12-19T18:42:32.611Z,98732.47
2022-12-19T18:44:42.879Z,98728.22
2022-12-19T18:46:47.343Z,98736.84
2022-12-19T18:48:50.655Z,98733.38
2022-12-19T18:50:55.045Z,98740.22
2022-12-19T18:52:59.637Z,98736.78
2022-12-19T18:55:07.267Z,98741.13
2022-12-19T18:57:10.391Z,98739.38
2022-12-19T18:59:13.631Z,98731.69
2022-12-19T19:01:18.924Z,98723.09
2022-12-19T19:03:26.522Z,98713.59
2022-12-19T19:05:31.442Z,98711.91
2022-12-19T19:07:34.503Z,98715.44
2022-12-19T19:09:37.567Z,98727.59
2022-12-19T19:11:40.780Z,98725.06
2022-12-19T19:13:43.945Z,98722.47
2022-12-19T19:15:49.236Z,98718.31
2022-12-19T19:18:02.976Z,98726.06
2022-12-19T19:20:09.264Z,98710.66
2022-12-19T19:22:12.370Z,98709.88
2022-12-19T19:24:17.673Z,98715.03
2022-12-19T19:26:21.194Z,98708.28
2022-12-19T19:28:24.349Z,98712.56
2022-12-19T19:30:27.459Z,98704.06
2022-12-19T19:32:30.814Z,98712.69
2022-12-19T19:34:37.504Z,98720.47
2022-12-19T19:36:44.113Z,98720.47
2022-12-19T19:38:49.161Z,98717.94
2022-12-19T19:40:52.397Z,98712.84
2022-12-19T19:42:55.466Z,98702.56
2022-12-19T19:44:58.559Z,98713.88
2022-12-19T19:47:01.942Z,98707.88
2022-12-19T19:49:05.212Z,98708.75
2022-12-19T19:51:08.271Z,98702.78
2022-12-19T19:53:13.731Z,98702.78
2022-12-19T19:55:16.851Z,98709.66
2022-12-19T19:57:20.907Z,98706.22
2022-12-19T19:59:24.463Z,98707.13
2022-12-19T20:01:28.064Z,98703.72
2022-12-19T20:03:31.612Z,98705.41
2022-12-19T20:05:34.965Z,98710.66
2022-12-19T20:07:38.220Z,98708.13
2022-12-19T20:09:42.774Z,98709.84
2022-12-19T20:11:46.097Z,98707.31
2022-12-19T20:13:49.206Z,98703.84
2022-12-19T20:15:52.411Z,98703.97
2022-12-19T20:17:55.702Z,98701.38
2022-12-19T20:19:58.949Z,98700.50
2022-12-19T20:22:02.256Z,98691.88
2022-12-19T20:24:05.751Z,98702.22
2022-12-19T20:26:11.426Z,98702.16
2022-12-19T20:28:14.744Z,98699.63
2022-12-19T20:30:18.184Z,98705.72
2022-12-19T20:32:21.437Z,98710.78
2022-12-19T20:34:25.992Z,98715.06
2022-12-19T20:36:29.735Z,98717.69
2022-12-19T20:38:33.062Z,98712.53
2022-12-19T20:40:36.212Z,98715.06
2022-12-19T20:42:40.696Z,98715.06
2022-12-19T20:44:44.101Z,98718.56
2022-12-19T20:46:47.578Z,98706.53
2022-12-19T20:48:51.681Z,98715.94
2022-12-19T20:50:57.063Z,98717.59
2022-12-19T20:53:00.312Z,98717.59
2022-12-19T20:55:04.056Z,98725.28
2022-12-19T20:57:07.333Z,98719.19
2022-12-19T20:59:12.193Z,98720.06
2022-12-19T21:01:17.551Z,98722.72
2022-12-19T21:03:29.898Z,98724.34
2022-12-19T21:05:33.679Z,98721.72
2022-12-19T21:07:36.949Z,98727.78
2022-12-19T21:09:44.975Z,98726.84
2022-12-19T21:11:48.244Z,98727.72
2022-12-19T21:13:51.340Z,98719.91
2022-12-19T21:15:56.810Z,98714.75
2022-12-19T21:18:01.444Z,98724.25
2022-12-19T21:20:04.962Z,98715.63
2022-12-19T21:22:08.117Z,98716.47
2022-12-19T21:24:11.427Z,98719.75
2022-12-19T21:26:14.612Z,98713.72
2022-12-19T21:28:17.745Z,98717.19
2022-12-19T21:30:21.147Z,98715.41
2022-12-19T21:32:25.637Z,98715.38
2022-12-19T21:34:28.891Z,98714.41
2022-12-19T21:36:33.021Z,98719.50
2022-12-19T21:38:36.722Z,98721.19
2022-12-19T21:40:39.983Z,98729.72
2022-12-19T21:42:43.055Z,98734.13
2022-12-19T21:44:46.127Z,98734.91
2022-12-19T21:46:49.426Z,98731.44
2022-12-19T21:48:55.807Z,98727.16
2022-12-19T21:50:58.983Z,98721.97
2022-12-19T21:53:02.074Z,98717.75
2022-12-19T21:55:05.682Z,98724.56
2022-12-19T21:57:08.946Z,98718.56
2022-12-19T21:59:13.449Z,98719.41
2022-12-19T22:01:16.691Z,98720.22
2022-12-19T22:03:20.125Z,98727.03
2022-12-19T22:05:24.764Z,98725.38
2022-12-19T22:07:28.065Z,98725.38
2022-12-19T22:09:32.231Z,98722.78
2022-12-19T22:11:36.663Z,98720.25
2022-12-19T22:13:39.854Z,98724.56
2022-12-19T22:15:43.305Z,98726.25
2022-12-19T22:17:46.382Z,98725.44
2022-12-19T22:19:49.577Z,98728.06
2022-12-19T22:21:54.010Z,98729.72
2022-12-19T22:23:58.216Z,98736.69
2022-12-19T22:26:03.028Z,98740.97
2022-12-19T22:28:06.538Z,98728.06
2022-12-19T22:30:11.278Z,98728.94
2022-12-19T22:32:14.671Z,98720.31
2022-12-19T22:34:21.958Z,98716.03
2022-12-19T22:36:28.314Z,98720.38
2022-12-19T22:38:33.618Z,98734.84
2022-12-19T22:40:36.676Z,98723.78
2022-12-19T22:42:40.103Z,98727.16
2022-12-19T22:44:43.180Z,98727.97
2022-12-19T22:46:46.837Z,98725.38
2022-12-19T22:48:51.016Z,98721.09
2022-12-19T22:50:54.834Z,98725.44
2022-12-19T22:52:58.091Z,98731.44
2022-12-19T22:55:02.554Z,98723.63
2022-12-19T22:57:05.673Z,98721.09
2022-12-19T22:59:09.586Z,98716.75
2022-12-19T23:01:15.198Z,98720.22
2022-12-19T23:03:18.739Z,98716.72
2022-12-19T23:05:22.116Z,98713.28
2022-12-19T23:07:25.318Z,98708.97
2022-12-19T23:09:28.670Z,98706.38
2022-12-19T23:11:35.655Z,98706.38
2022-12-19T23:13:39.166Z,98702.91
2022-12-19T23:15:42.144Z,98695.16
2022-12-19T23:17:45.198Z,98708.09
2022-12-19T23:19:48.219Z,98700.34
2022-12-19T23:21:51.235Z,98706.38
2022-12-19T23:23:56.185Z,98711.56
2022-12-19T23:25:59.255Z,98714.13
2022-12-19T23:28:03.747Z,98704.66
2022-12-19T23:30:08.147Z,98691.81
2022-12-19T23:32:11.331Z,98684.00
2022-12-19T23:34:14.590Z,98708.09
2022-12-19T23:36:32.356Z,98695.13
2022-12-19T23:38:42.263Z,98692.53
2022-12-19T23:40:45.631Z,98700.22
2022-12-19T23:42:48.888Z,98694.22
2022-12-19T23:44:53.397Z,98687.31
2022-12-19T23:47:02.579Z,98685.63
2022-12-19T23:49:06.775Z,98689.91
2022-12-19T23:51:13.048Z,98691.59
2022-12-19T23:53:16.138Z,98685.56
2022-12-19T23:55:19.225Z,98689.78
2022-12-19T23:57:22.287Z,98700.13
2022-12-19T23:59:25.444Z,98700.06
